sensor_id;sensor_type;location;lat;lon;timestamp;pressure;altitude;pressure_sealevel;temperature;humidity
10135;BME280;5107;48.850;8.924;2023-04-29T00:01:47;96496.84;;;13.85;94.83
10135;BME280;5107;48.850;8.924;2023-04-29T00:04:13;96494.19;;;13.85;95.36
10135;BME280;5107;48.850;8.924;2023-04-29T00:06:38;96491.38;;;13.86;95.16
10135;BME280;5107;48.850;8.924;2023-04-29T00:09:04;96487.28;;;13.84;95.26
10135;BME280;5107;48.850;8.924;2023-04-29T00:11:29;96480.78;;;13.86;95.18
10135;BME280;5107;48.850;8.924;2023-04-29T00:13:55;96479.78;;;13.87;95.42
10135;BME280;5107;48.850;8.924;2023-04-29T00:16:20;96487.53;;;13.89;94.61
10135;BME280;5107;48.850;8.924;2023-04-29T00:18:45;96486.94;;;13.93;94.74
10135;BME280;5107;48.850;8.924;2023-04-29T00:21:11;96478.16;;;13.86;94.89
10135;BME280;5107;48.850;8.924;2023-04-29T00:23:36;96481.59;;;13.87;94.58
10135;BME280;5107;48.850;8.924;2023-04-29T00:26:01;96484.88;;;13.89;94.76
10135;BME280;5107;48.850;8.924;2023-04-29T00:28:27;96487.31;;;13.90;94.42
10135;BME280;5107;48.850;8.924;2023-04-29T00:30:52;96475.50;;;13.86;94.36
10135;BME280;5107;48.850;8.924;2023-04-29T00:33:18;96475.69;;;13.85;94.46
10135;BME280;5107;48.850;8.924;2023-04-29T00:35:44;96476.69;;;13.84;94.56
10135;BME280;5107;48.850;8.924;2023-04-29T00:38:09;96484.81;;;13.82;94.65
10135;BME280;5107;48.850;8.924;2023-04-29T00:40:34;96480.13;;;13.78;94.70
10135;BME280;5107;48.850;8.924;2023-04-29T00:43:00;96478.88;;;13.74;95.07
10135;BME280;5107;48.850;8.924;2023-04-29T00:45:25;96479.09;;;13.72;94.79
10135;BME280;5107;48.850;8.924;2023-04-29T00:47:51;96481.09;;;13.70;95.24
10135;BME280;5107;48.850;8.924;2023-04-29T00:50:17;96490.25;;;13.67;95.63
10135;BME280;5107;48.850;8.924;2023-04-29T00:52:43;96486.78;;;13.67;95.66
10135;BME280;5107;48.850;8.924;2023-04-29T00:55:10;96488.78;;;13.65;95.88
10135;BME280;5107;48.850;8.924;2023-04-29T00:57:37;96500.19;;;13.65;96.02
10135;BME280;5107;48.850;8.924;2023-04-29T01:00:04;96498.13;;;13.61;96.02
10135;BME280;5107;48.850;8.924;2023-04-29T01:02:29;96492.41;;;13.57;95.87
10135;BME280;5107;48.850;8.924;2023-04-29T01:04:55;96496.06;;;13.56;96.25
10135;BME280;5107;48.850;8.924;2023-04-29T01:10:30;96494.63;;;13.54;96.42
10135;BME280;5107;48.850;8.924;2023-04-29T01:13:09;96492.38;;;13.51;96.43
10135;BME280;5107;48.850;8.924;2023-04-29T01:18:28;96491.13;;;13.47;95.85
10135;BME280;5107;48.850;8.924;2023-04-29T01:20:55;96489.50;;;13.46;96.06
10135;BME280;5107;48.850;8.924;2023-04-29T01:23:25;96493.16;;;13.45;95.91
10135;BME280;5107;48.850;8.924;2023-04-29T01:25:51;96484.78;;;13.41;95.64
10135;BME280;5107;48.850;8.924;2023-04-29T01:28:40;96499.63;;;13.42;95.40
10135;BME280;5107;48.850;8.924;2023-04-29T01:31:45;96498.59;;;13.37;94.76
10135;BME280;5107;48.850;8.924;2023-04-29T01:34:27;96491.31;;;13.45;94.00
10135;BME280;5107;48.850;8.924;2023-04-29T01:37:48;96494.53;;;13.41;93.94
10135;BME280;5107;48.850;8.924;2023-04-29T01:40:19;96494.94;;;13.38;93.49
10135;BME280;5107;48.850;8.924;2023-04-29T01:45:17;96496.13;;;13.35;93.48
10135;BME280;5107;48.850;8.924;2023-04-29T01:47:43;96495.13;;;13.36;92.61
10135;BME280;5107;48.850;8.924;2023-04-29T01:50:09;96494.06;;;13.31;92.84
10135;BME280;5107;48.850;8.924;2023-04-29T01:52:35;96486.53;;;13.27;92.64
10135;BME280;5107;48.850;8.924;2023-04-29T01:55:00;96489.34;;;13.26;92.22
10135;BME280;5107;48.850;8.924;2023-04-29T01:57:26;96493.19;;;13.23;92.25
10135;BME280;5107;48.850;8.924;2023-04-29T01:59:51;96494.19;;;13.22;92.01
10135;BME280;5107;48.850;8.924;2023-04-29T02:02:17;96484.44;;;13.23;92.09
10135;BME280;5107;48.850;8.924;2023-04-29T02:04:45;96491.94;;;13.19;92.37
10135;BME280;5107;48.850;8.924;2023-04-29T02:07:10;96491.53;;;13.22;92.11
10135;BME280;5107;48.850;8.924;2023-04-29T02:09:36;96488.03;;;13.15;92.31
10135;BME280;5107;48.850;8.924;2023-04-29T02:12:01;96491.69;;;13.14;92.43
10135;BME280;5107;48.850;8.924;2023-04-29T02:14:28;96492.72;;;13.13;92.13
10135;BME280;5107;48.850;8.924;2023-04-29T02:16:54;96490.69;;;13.15;91.96
10135;BME280;5107;48.850;8.924;2023-04-29T02:19:19;96496.41;;;13.19;91.08
10135;BME280;5107;48.850;8.924;2023-04-29T02:21:45;96486.59;;;13.13;91.07
10135;BME280;5107;48.850;8.924;2023-04-29T02:24:10;96488.84;;;13.16;90.07
10135;BME280;5107;48.850;8.924;2023-04-29T02:26:35;96493.31;;;13.15;89.58
10135;BME280;5107;48.850;8.924;2023-04-29T02:29:02;96487.22;;;13.15;89.24
10135;BME280;5107;48.850;8.924;2023-04-29T02:31:28;96498.34;;;13.10;88.85
10135;BME280;5107;48.850;8.924;2023-04-29T02:33:53;96494.88;;;13.10;88.72
10135;BME280;5107;48.850;8.924;2023-04-29T02:36:19;96499.34;;;13.09;88.21
10135;BME280;5107;48.850;8.924;2023-04-29T02:38:44;96494.44;;;13.06;88.00
10135;BME280;5107;48.850;8.924;2023-04-29T02:41:17;96492.81;;;13.05;88.20
10135;BME280;5107;48.850;8.924;2023-04-29T02:43:42;96495.19;;;13.00;88.13
10135;BME280;5107;48.850;8.924;2023-04-29T02:46:09;96492.97;;;12.97;88.63
10135;BME280;5107;48.850;8.924;2023-04-29T02:48:34;96491.50;;;12.95;88.46
10135;BME280;5107;48.850;8.924;2023-04-29T02:51:00;96485.78;;;12.91;88.77
10135;BME280;5107;48.850;8.924;2023-04-29T02:53:26;96497.34;;;12.90;87.91
10135;BME280;5107;48.850;8.924;2023-04-29T02:55:51;96490.41;;;12.89;88.19
10135;BME280;5107;48.850;8.924;2023-04-29T02:58:17;96497.16;;;12.91;87.95
10135;BME280;5107;48.850;8.924;2023-04-29T03:00:42;96489.03;;;12.93;87.84
10135;BME280;5107;48.850;8.924;2023-04-29T03:03:08;96491.88;;;12.91;88.01
10135;BME280;5107;48.850;8.924;2023-04-29T03:05:33;96493.50;;;12.92;88.09
10135;BME280;5107;48.850;8.924;2023-04-29T03:07:59;96496.97;;;12.93;87.79
10135;BME280;5107;48.850;8.924;2023-04-29T03:10:24;96499.38;;;12.88;88.00
10135;BME280;5107;48.850;8.924;2023-04-29T03:12:50;96492.38;;;12.80;88.14
10135;BME280;5107;48.850;8.924;2023-04-29T03:15:15;96500.75;;;12.84;88.22
10135;BME280;5107;48.850;8.924;2023-04-29T03:17:41;96503.16;;;12.79;88.40
10135;BME280;5107;48.850;8.924;2023-04-29T03:20:06;96506.16;;;12.76;88.48
10135;BME280;5107;48.850;8.924;2023-04-29T03:22:34;96501.06;;;12.74;88.58
10135;BME280;5107;48.850;8.924;2023-04-29T03:24:59;96503.28;;;12.71;89.09
10135;BME280;5107;48.850;8.924;2023-04-29T03:27:25;96497.72;;;12.66;89.35
10135;BME280;5107;48.850;8.924;2023-04-29T03:29:50;96494.44;;;12.64;89.79
10135;BME280;5107;48.850;8.924;2023-04-29T03:32:15;96491.56;;;12.59;90.13
10135;BME280;5107;48.850;8.924;2023-04-29T03:34:41;96494.56;;;12.55;90.58
10135;BME280;5107;48.850;8.924;2023-04-29T03:37:06;96491.31;;;12.53;90.82
10135;BME280;5107;48.850;8.924;2023-04-29T03:39:32;96487.03;;;12.52;91.54
10135;BME280;5107;48.850;8.924;2023-04-29T03:41:58;96487.16;;;12.44;92.18
10135;BME280;5107;48.850;8.924;2023-04-29T03:44:24;96487.28;;;12.36;93.08
10135;BME280;5107;48.850;8.924;2023-04-29T03:46:50;96489.84;;;12.30;93.37
10135;BME280;5107;48.850;8.924;2023-04-29T03:49:16;96487.91;;;12.24;93.90
10135;BME280;5107;48.850;8.924;2023-04-29T03:51:41;96493.03;;;12.25;94.36
10135;BME280;5107;48.850;8.924;2023-04-29T03:54:09;96486.28;;;12.23;94.75
10135;BME280;5107;48.850;8.924;2023-04-29T03:56:35;96487.91;;;12.24;95.13
10135;BME280;5107;48.850;8.924;2023-04-29T03:59:00;96492.38;;;12.23;95.43
10135;BME280;5107;48.850;8.924;2023-04-29T04:01:25;96491.56;;;12.23;95.45
10135;BME280;5107;48.850;8.924;2023-04-29T04:03:51;96496.03;;;12.22;95.39
10135;BME280;5107;48.850;8.924;2023-04-29T04:06:16;96498.47;;;12.24;95.32
10135;BME280;5107;48.850;8.924;2023-04-29T04:08:41;96500.50;;;12.22;95.29
10135;BME280;5107;48.850;8.924;2023-04-29T04:11:07;96500.56;;;12.13;95.27
10135;BME280;5107;48.850;8.924;2023-04-29T04:13:33;96508.31;;;12.15;95.22
10135;BME280;5107;48.850;8.924;2023-04-29T04:15:59;96512.34;;;12.11;95.81
10135;BME280;5107;48.850;8.924;2023-04-29T04:18:24;96511.06;;;12.07;95.63
10135;BME280;5107;48.850;8.924;2023-04-29T04:20:49;96520.78;;;12.06;96.06
10135;BME280;5107;48.850;8.924;2023-04-29T04:23:15;96527.34;;;12.10;96.11
10135;BME280;5107;48.850;8.924;2023-04-29T04:25:45;96514.75;;;12.27;97.02
10135;BME280;5107;48.850;8.924;2023-04-29T04:28:10;96525.47;;;12.40;96.40
10135;BME280;5107;48.850;8.924;2023-04-29T04:30:36;96523.09;;;12.45;95.35
10135;BME280;5107;48.850;8.924;2023-04-29T04:33:01;96536.31;;;12.67;95.87
10135;BME280;5107;48.850;8.924;2023-04-29T04:35:26;96540.78;;;12.66;94.14
10135;BME280;5107;48.850;8.924;2023-04-29T04:37:52;96543.47;;;12.73;93.95
10135;BME280;5107;48.850;8.924;2023-04-29T04:40:17;96546.13;;;12.73;92.89
10135;BME280;5107;48.850;8.924;2023-04-29T04:42:42;96546.63;;;12.83;93.26
10135;BME280;5107;48.850;8.924;2023-04-29T04:45:08;96550.22;;;12.75;92.56
10135;BME280;5107;48.850;8.924;2023-04-29T04:47:35;96544.22;;;12.67;93.07
10135;BME280;5107;48.850;8.924;2023-04-29T04:50:01;96547.56;;;12.54;93.16
10135;BME280;5107;48.850;8.924;2023-04-29T04:52:26;96542.56;;;12.44;93.76
10135;BME280;5107;48.850;8.924;2023-04-29T04:54:51;96549.03;;;12.42;94.19
10135;BME280;5107;48.850;8.924;2023-04-29T04:57:17;96563.69;;;12.44;94.11
10135;BME280;5107;48.850;8.924;2023-04-29T04:59:42;96556.69;;;12.37;94.56
10135;BME280;5107;48.850;8.924;2023-04-29T05:02:08;96567.59;;;12.34;95.30
10135;BME280;5107;48.850;8.924;2023-04-29T05:04:33;96570.41;;;12.47;95.65
10135;BME280;5107;48.850;8.924;2023-04-29T05:06:58;96569.69;;;12.53;94.94
10135;BME280;5107;48.850;8.924;2023-04-29T05:09:24;96573.84;;;12.47;95.24
10135;BME280;5107;48.850;8.924;2023-04-29T05:11:50;96581.16;;;12.45;96.06
10135;BME280;5107;48.850;8.924;2023-04-29T05:14:16;96584.81;;;12.44;96.02
10135;BME280;5107;48.850;8.924;2023-04-29T05:16:42;96590.91;;;12.45;96.50
10135;BME280;5107;48.850;8.924;2023-04-29T05:19:09;96597.06;;;12.52;96.03
10135;BME280;5107;48.850;8.924;2023-04-29T05:21:35;96599.06;;;12.50;95.92
10135;BME280;5107;48.850;8.924;2023-04-29T05:24:00;96601.53;;;12.51;95.74
10135;BME280;5107;48.850;8.924;2023-04-29T05:26:25;96602.53;;;12.50;95.91
10135;BME280;5107;48.850;8.924;2023-04-29T05:28:51;96602.16;;;12.53;95.74
10135;BME280;5107;48.850;8.924;2023-04-29T05:31:16;96602.28;;;12.45;95.49
10135;BME280;5107;48.850;8.924;2023-04-29T05:33:41;96610.91;;;12.39;95.79
10135;BME280;5107;48.850;8.924;2023-04-29T05:36:07;96607.81;;;12.36;95.22
10135;BME280;5107;48.850;8.924;2023-04-29T05:38:32;96616.28;;;12.46;95.63
10135;BME280;5107;48.850;8.924;2023-04-29T05:40:57;96611.84;;;12.46;95.15
10135;BME280;5107;48.850;8.924;2023-04-29T05:43:23;96604.91;;;12.45;94.49
10135;BME280;5107;48.850;8.924;2023-04-29T05:45:49;96616.81;;;12.41;94.48
10135;BME280;5107;48.850;8.924;2023-04-29T05:48:14;96626.13;;;12.37;94.64
10135;BME280;5107;48.850;8.924;2023-04-29T05:50:40;96632.09;;;12.31;94.79
10135;BME280;5107;48.850;8.924;2023-04-29T05:53:05;96637.69;;;12.36;94.75
10135;BME280;5107;48.850;8.924;2023-04-29T05:55:31;96637.94;;;12.41;94.43
10135;BME280;5107;48.850;8.924;2023-04-29T05:57:56;96636.28;;;12.40;93.64
10135;BME280;5107;48.850;8.924;2023-04-29T06:00:21;96648.06;;;12.38;92.57
10135;BME280;5107;48.850;8.924;2023-04-29T06:02:47;96648.03;;;12.52;92.70
10135;BME280;5107;48.850;8.924;2023-04-29T06:05:13;96652.94;;;12.55;92.37
10135;BME280;5107;48.850;8.924;2023-04-29T06:07:40;96661.31;;;12.59;91.95
10135;BME280;5107;48.850;8.924;2023-04-29T06:10:06;96649.66;;;12.68;91.96
10135;BME280;5107;48.850;8.924;2023-04-29T06:12:32;96661.50;;;12.58;91.41
10135;BME280;5107;48.850;8.924;2023-04-29T06:14:57;96664.78;;;12.45;91.52
10135;BME280;5107;48.850;8.924;2023-04-29T06:17:23;96674.44;;;12.52;92.42
10135;BME280;5107;48.850;8.924;2023-04-29T06:19:48;96678.72;;;12.53;91.68
10135;BME280;5107;48.850;8.924;2023-04-29T06:22:13;96676.25;;;12.52;91.17
10135;BME280;5107;48.850;8.924;2023-04-29T06:24:38;96687.34;;;12.62;90.88
10135;BME280;5107;48.850;8.924;2023-04-29T06:27:04;96683.69;;;12.48;90.13
10135;BME280;5107;48.850;8.924;2023-04-29T06:29:29;96683.59;;;12.57;90.73
10135;BME280;5107;48.850;8.924;2023-04-29T06:31:55;96690.91;;;12.54;89.58
10135;BME280;5107;48.850;8.924;2023-04-29T06:34:20;96690.06;;;12.69;89.55
10135;BME280;5107;48.850;8.924;2023-04-29T06:36:46;96699.91;;;12.75;89.24
10135;BME280;5107;48.850;8.924;2023-04-29T06:39:11;96700.59;;;13.13;88.32
10135;BME280;5107;48.850;8.924;2023-04-29T06:41:37;96706.97;;;13.18;86.17
10135;BME280;5107;48.850;8.924;2023-04-29T06:44:02;96707.19;;;13.38;85.55
10135;BME280;5107;48.850;8.924;2023-04-29T06:46:28;96708.13;;;13.31;85.69
10135;BME280;5107;48.850;8.924;2023-04-29T06:48:53;96712.97;;;13.12;85.49
10135;BME280;5107;48.850;8.924;2023-04-29T06:51:19;96718.63;;;13.09;85.49
10135;BME280;5107;48.850;8.924;2023-04-29T06:53:44;96716.75;;;12.88;85.66
10135;BME280;5107;48.850;8.924;2023-04-29T06:56:10;96714.09;;;12.74;86.49
10135;BME280;5107;48.850;8.924;2023-04-29T06:58:36;96721.31;;;12.80;86.51
10135;BME280;5107;48.850;8.924;2023-04-29T07:01:01;96716.34;;;13.06;86.44
10135;BME280;5107;48.850;8.924;2023-04-29T07:03:28;96712.97;;;13.27;84.83
10135;BME280;5107;48.850;8.924;2023-04-29T07:05:53;96720.31;;;13.32;84.59
10135;BME280;5107;48.850;8.924;2023-04-29T07:08:18;96725.59;;;13.32;84.11
10135;BME280;5107;48.850;8.924;2023-04-29T07:10:52;96721.13;;;13.32;83.54
10135;BME280;5107;48.850;8.924;2023-04-29T07:13:18;96728.69;;;13.14;83.47
10135;BME280;5107;48.850;8.924;2023-04-29T07:15:43;96738.59;;;12.97;84.54
10135;BME280;5107;48.850;8.924;2023-04-29T07:18:08;96736.84;;;12.89;84.80
10135;BME280;5107;48.850;8.924;2023-04-29T07:20:35;96735.41;;;12.72;85.42
10135;BME280;5107;48.850;8.924;2023-04-29T07:23:01;96742.25;;;12.67;85.53
10135;BME280;5107;48.850;8.924;2023-04-29T07:25:26;96751.06;;;12.59;85.91
10135;BME280;5107;48.850;8.924;2023-04-29T07:27:53;96750.81;;;12.69;86.31
10135;BME280;5107;48.850;8.924;2023-04-29T07:30:18;96753.72;;;12.74;86.63
10135;BME280;5107;48.850;8.924;2023-04-29T07:32:44;96752.44;;;12.84;86.44
10135;BME280;5107;48.850;8.924;2023-04-29T07:35:09;96748.44;;;13.03;86.37
10135;BME280;5107;48.850;8.924;2023-04-29T07:37:34;96754.78;;;13.23;85.20
10135;BME280;5107;48.850;8.924;2023-04-29T07:40:00;96757.78;;;13.35;84.35
10135;BME280;5107;48.850;8.924;2023-04-29T07:42:25;96757.56;;;13.51;83.87
10135;BME280;5107;48.850;8.924;2023-04-29T07:44:50;96759.91;;;13.61;82.68
10135;BME280;5107;48.850;8.924;2023-04-29T07:47:16;96752.16;;;13.59;81.75
10135;BME280;5107;48.850;8.924;2023-04-29T07:49:41;96761.66;;;13.75;81.11
10135;BME280;5107;48.850;8.924;2023-04-29T07:52:07;96765.72;;;13.71;80.00
10135;BME280;5107;48.850;8.924;2023-04-29T07:54:37;96758.56;;;13.50;81.14
10135;BME280;5107;48.850;8.924;2023-04-29T07:57:04;96760.88;;;13.24;81.59
10135;BME280;5107;48.850;8.924;2023-04-29T07:59:30;96767.25;;;13.44;82.27
10135;BME280;5107;48.850;8.924;2023-04-29T08:01:56;96765.38;;;13.59;81.21
10135;BME280;5107;48.850;8.924;2023-04-29T08:04:21;96773.06;;;13.54;81.69
10135;BME280;5107;48.850;8.924;2023-04-29T08:06:47;96775.28;;;13.72;80.82
10135;BME280;5107;48.850;8.924;2023-04-29T08:09:13;96775.72;;;13.76;80.25
10135;BME280;5107;48.850;8.924;2023-04-29T08:11:38;96769.81;;;13.95;80.66
10135;BME280;5107;48.850;8.924;2023-04-29T08:14:04;96774.84;;;14.11;80.44
10135;BME280;5107;48.850;8.924;2023-04-29T08:16:30;96763.63;;;14.30;80.15
10135;BME280;5107;48.850;8.924;2023-04-29T08:18:55;96781.44;;;14.43;78.59
10135;BME280;5107;48.850;8.924;2023-04-29T08:21:21;96783.38;;;14.34;78.21
10135;BME280;5107;48.850;8.924;2023-04-29T08:23:47;96787.75;;;14.21;78.19
10135;BME280;5107;48.850;8.924;2023-04-29T08:26:13;96781.72;;;14.05;78.68
10135;BME280;5107;48.850;8.924;2023-04-29T08:28:38;96789.03;;;14.03;79.16
10135;BME280;5107;48.850;8.924;2023-04-29T08:31:04;96794.13;;;14.05;79.57
10135;BME280;5107;48.850;8.924;2023-04-29T08:33:37;96788.72;;;14.13;79.28
10135;BME280;5107;48.850;8.924;2023-04-29T08:36:03;96785.78;;;14.08;77.68
10135;BME280;5107;48.850;8.924;2023-04-29T08:38:29;96787.94;;;14.19;76.85
10135;BME280;5107;48.850;8.924;2023-04-29T08:40:55;96784.38;;;14.33;77.08
10135;BME280;5107;48.850;8.924;2023-04-29T08:43:20;96785.16;;;14.49;76.48
10135;BME280;5107;48.850;8.924;2023-04-29T08:45:48;96781.00;;;14.67;76.33
10135;BME280;5107;48.850;8.924;2023-04-29T08:48:14;96779.50;;;14.86;74.64
10135;BME280;5107;48.850;8.924;2023-04-29T08:50:41;96786.22;;;15.23;75.08
10135;BME280;5107;48.850;8.924;2023-04-29T08:53:07;96794.06;;;14.69;73.05
10135;BME280;5107;48.850;8.924;2023-04-29T08:55:44;96795.38;;;14.79;73.71
10135;BME280;5107;48.850;8.924;2023-04-29T08:58:11;96803.53;;;14.85;74.22
10135;BME280;5107;48.850;8.924;2023-04-29T09:00:37;96793.91;;;15.05;73.72
10135;BME280;5107;48.850;8.924;2023-04-29T09:03:32;96796.28;;;15.00;72.70
10135;BME280;5107;48.850;8.924;2023-04-29T09:05:59;96798.75;;;15.42;71.97
10135;BME280;5107;48.850;8.924;2023-04-29T09:08:26;96798.56;;;15.44;72.26
10135;BME280;5107;48.850;8.924;2023-04-29T09:10:52;96794.38;;;15.56;71.25
10135;BME280;5107;48.850;8.924;2023-04-29T09:13:37;96797.38;;;15.53;70.78
10135;BME280;5107;48.850;8.924;2023-04-29T09:16:03;96804.56;;;15.66;71.05
10135;BME280;5107;48.850;8.924;2023-04-29T09:18:50;96795.78;;;15.65;69.67
10135;BME280;5107;48.850;8.924;2023-04-29T09:21:20;96789.91;;;15.70;71.45
10135;BME280;5107;48.850;8.924;2023-04-29T09:23:48;96799.19;;;15.46;72.09
10135;BME280;5107;48.850;8.924;2023-04-29T09:26:14;96800.69;;;15.62;70.95
10135;BME280;5107;48.850;8.924;2023-04-29T09:28:40;96808.84;;;15.60;70.54
10135;BME280;5107;48.850;8.924;2023-04-29T09:31:10;96799.22;;;14.77;71.09
10135;BME280;5107;48.850;8.924;2023-04-29T09:33:53;96806.31;;;14.70;71.54
10135;BME280;5107;48.850;8.924;2023-04-29T09:36:46;96809.81;;;14.28;70.86
10135;BME280;5107;48.850;8.924;2023-04-29T09:39:14;96815.41;;;14.39;71.84
10135;BME280;5107;48.850;8.924;2023-04-29T09:41:42;96816.59;;;14.37;72.35
10135;BME280;5107;48.850;8.924;2023-04-29T09:44:28;96822.06;;;14.57;71.96
10135;BME280;5107;48.850;8.924;2023-04-29T09:52:04;96819.47;;;14.91;71.48
10135;BME280;5107;48.850;8.924;2023-04-29T09:54:31;96818.41;;;14.58;71.00
10135;BME280;5107;48.850;8.924;2023-04-29T09:56:59;96823.88;;;14.77;72.90
10135;BME280;5107;48.850;8.924;2023-04-29T09:59:26;96826.00;;;14.89;71.85
10135;BME280;5107;48.850;8.924;2023-04-29T10:01:55;96816.63;;;14.65;71.54
10135;BME280;5107;48.850;8.924;2023-04-29T10:04:22;96825.56;;;14.36;72.48
10135;BME280;5107;48.850;8.924;2023-04-29T10:06:50;96826.56;;;14.35;73.06
10135;BME280;5107;48.850;8.924;2023-04-29T10:09:17;96825.09;;;14.32;73.27
10135;BME280;5107;48.850;8.924;2023-04-29T10:11:48;96826.56;;;14.35;72.95
10135;BME280;5107;48.850;8.924;2023-04-29T10:16:51;96824.31;;;14.53;71.52
10135;BME280;5107;48.850;8.924;2023-04-29T10:19:25;96827.91;;;14.46;72.34
10135;BME280;5107;48.850;8.924;2023-04-29T10:21:54;96826.09;;;14.46;71.92
10135;BME280;5107;48.850;8.924;2023-04-29T10:24:24;96834.25;;;14.51;72.75
10135;BME280;5107;48.850;8.924;2023-04-29T10:26:50;96825.03;;;14.68;72.81
10135;BME280;5107;48.850;8.924;2023-04-29T10:29:16;96822.00;;;14.71;71.36
10135;BME280;5107;48.850;8.924;2023-04-29T10:31:43;96827.25;;;14.93;70.92
10135;BME280;5107;48.850;8.924;2023-04-29T10:34:10;96828.88;;;14.94;71.30
10135;BME280;5107;48.850;8.924;2023-04-29T10:36:37;96825.34;;;15.14;69.42
10135;BME280;5107;48.850;8.924;2023-04-29T10:39:03;96815.84;;;15.33;69.81
10135;BME280;5107;48.850;8.924;2023-04-29T10:41:42;96823.06;;;15.46;69.55
10135;BME280;5107;48.850;8.924;2023-04-29T10:44:10;96804.47;;;15.39;68.45
10135;BME280;5107;48.850;8.924;2023-04-29T10:46:36;96801.31;;;15.64;67.92
10135;BME280;5107;48.850;8.924;2023-04-29T10:49:03;96804.81;;;15.77;66.71
10135;BME280;5107;48.850;8.924;2023-04-29T10:51:39;96801.66;;;16.41;65.29
10135;BME280;5107;48.850;8.924;2023-04-29T10:54:12;96805.78;;;16.57;64.19
10135;BME280;5107;48.850;8.924;2023-04-29T10:59:13;96810.84;;;16.12;62.86
10135;BME280;5107;48.850;8.924;2023-04-29T11:01:47;96808.19;;;16.06;63.53
10135;BME280;5107;48.850;8.924;2023-04-29T11:04:13;96798.06;;;15.75;63.22
10135;BME280;5107;48.850;8.924;2023-04-29T11:06:40;96801.00;;;16.00;62.72
10135;BME280;5107;48.850;8.924;2023-04-29T11:09:12;96801.56;;;15.75;63.81
10135;BME280;5107;48.850;8.924;2023-04-29T11:14:12;96798.38;;;15.45;64.58
10135;BME280;5107;48.850;8.924;2023-04-29T11:16:51;96798.28;;;15.26;64.85
10135;BME280;5107;48.850;8.924;2023-04-29T11:19:17;96796.78;;;15.16;64.57
10135;BME280;5107;48.850;8.924;2023-04-29T11:21:44;96790.28;;;15.19;63.81
10135;BME280;5107;48.850;8.924;2023-04-29T11:24:10;96795.09;;;15.43;64.52
10135;BME280;5107;48.850;8.924;2023-04-29T11:26:37;96797.03;;;15.56;67.29
10135;BME280;5107;48.850;8.924;2023-04-29T11:29:04;96800.59;;;15.89;67.37
10135;BME280;5107;48.850;8.924;2023-04-29T11:31:32;96795.66;;;15.80;68.19
10135;BME280;5107;48.850;8.924;2023-04-29T11:33:58;96794.22;;;15.77;68.34
10135;BME280;5107;48.850;8.924;2023-04-29T11:36:25;96797.22;;;15.61;69.41
10135;BME280;5107;48.850;8.924;2023-04-29T11:38:51;96802.25;;;15.49;69.45
10135;BME280;5107;48.850;8.924;2023-04-29T11:41:17;96806.31;;;15.45;69.16
10135;BME280;5107;48.850;8.924;2023-04-29T11:43:46;96812.13;;;15.55;69.73
10135;BME280;5107;48.850;8.924;2023-04-29T11:46:13;96809.69;;;15.74;67.19
10135;BME280;5107;48.850;8.924;2023-04-29T11:48:45;96807.22;;;15.66;66.23
10135;BME280;5107;48.850;8.924;2023-04-29T11:51:17;96814.97;;;15.19;69.42
10135;BME280;5107;48.850;8.924;2023-04-29T11:53:43;96807.69;;;15.35;67.22
10135;BME280;5107;48.850;8.924;2023-04-29T11:56:09;96816.50;;;15.48;67.12
10135;BME280;5107;48.850;8.924;2023-04-29T11:58:36;96817.78;;;15.52;67.39
10135;BME280;5107;48.850;8.924;2023-04-29T12:01:02;96816.94;;;15.52;66.79
10135;BME280;5107;48.850;8.924;2023-04-29T12:03:30;96817.47;;;15.75;67.74
10135;BME280;5107;48.850;8.924;2023-04-29T12:05:55;96815.88;;;15.81;67.18
10135;BME280;5107;48.850;8.924;2023-04-29T12:08:25;96817.47;;;15.75;66.33
10135;BME280;5107;48.850;8.924;2023-04-29T12:10:52;96819.53;;;15.73;67.93
10135;BME280;5107;48.850;8.924;2023-04-29T12:13:18;96822.72;;;15.55;67.43
10135;BME280;5107;48.850;8.924;2023-04-29T12:15:45;96821.13;;;15.68;68.35
10135;BME280;5107;48.850;8.924;2023-04-29T12:18:12;96826.75;;;15.51;66.72
10135;BME280;5107;48.850;8.924;2023-04-29T12:20:37;96824.56;;;15.21;67.66
10135;BME280;5107;48.850;8.924;2023-04-29T12:23:17;96827.78;;;15.16;68.92
10135;BME280;5107;48.850;8.924;2023-04-29T12:26:03;96827.88;;;14.95;69.26
10135;BME280;5107;48.850;8.924;2023-04-29T12:28:28;96833.44;;;15.06;69.28
10135;BME280;5107;48.850;8.924;2023-04-29T12:30:55;96834.19;;;14.94;69.02
10135;BME280;5107;48.850;8.924;2023-04-29T12:33:25;96829.19;;;14.77;69.53
10135;BME280;5107;48.850;8.924;2023-04-29T12:35:52;96830.38;;;14.75;70.46
10135;BME280;5107;48.850;8.924;2023-04-29T12:38:24;96828.22;;;14.85;70.24
10135;BME280;5107;48.850;8.924;2023-04-29T12:40:58;96836.63;;;14.95;69.61
10135;BME280;5107;48.850;8.924;2023-04-29T12:43:31;96834.31;;;15.13;69.83
10135;BME280;5107;48.850;8.924;2023-04-29T12:46:05;96835.72;;;15.16;69.21
10135;BME280;5107;48.850;8.924;2023-04-29T12:48:32;96836.13;;;15.47;68.18
10135;BME280;5107;48.850;8.924;2023-04-29T12:50:59;96832.72;;;15.26;68.00
10135;BME280;5107;48.850;8.924;2023-04-29T12:53:25;96828.75;;;15.43;68.26
10135;BME280;5107;48.850;8.924;2023-04-29T12:55:51;96829.09;;;15.68;68.19
10135;BME280;5107;48.850;8.924;2023-04-29T12:58:16;96833.00;;;15.72;67.91
10135;BME280;5107;48.850;8.924;2023-04-29T13:00:42;96835.44;;;15.73;67.16
10135;BME280;5107;48.850;8.924;2023-04-29T13:03:07;96842.41;;;15.81;67.22
10135;BME280;5107;48.850;8.924;2023-04-29T13:05:32;96826.53;;;16.07;66.17
10135;BME280;5107;48.850;8.924;2023-04-29T13:07:58;96837.97;;;16.08;66.93
10135;BME280;5107;48.850;8.924;2023-04-29T13:10:23;96839.66;;;16.28;65.83
10135;BME280;5107;48.850;8.924;2023-04-29T13:12:49;96843.47;;;16.00;66.39
10135;BME280;5107;48.850;8.924;2023-04-29T13:15:14;96843.31;;;16.21;66.13
10135;BME280;5107;48.850;8.924;2023-04-29T13:17:39;96845.72;;;16.03;66.39
10135;BME280;5107;48.850;8.924;2023-04-29T13:20:06;96843.53;;;16.19;66.76
10135;BME280;5107;48.850;8.924;2023-04-29T13:22:32;96849.47;;;16.28;66.61
10135;BME280;5107;48.850;8.924;2023-04-29T13:24:57;96845.38;;;16.32;65.39
10135;BME280;5107;48.850;8.924;2023-04-29T13:27:23;96852.13;;;16.35;67.52
10135;BME280;5107;48.850;8.924;2023-04-29T13:29:48;96852.56;;;16.45;66.12
10135;BME280;5107;48.850;8.924;2023-04-29T13:32:14;96846.75;;;16.08;65.80